sensor_id;sensor_type;location;lat;lon;timestamp;temperature;humidity
52415;DHT22;38340;52.964;6.086;2022-12-24T00:02:20;7.10;99.90
52415;DHT22;38340;52.964;6.086;2022-12-24T00:04:46;7.10;99.90
52415;DHT22;38340;52.964;6.086;2022-12-24T00:07:12;6.90;99.90
52415;DHT22;38340;52.964;6.086;2022-12-24T00:09:37;7.10;99.90
52415;DHT22;38340;52.964;6.086;2022-12-24T00:12:03;6.90;99.90
52415;DHT22;38340;52.964;6.086;2022-12-24T00:14:29;7.20;99.90
52415;DHT22;38340;52.964;6.086;2022-12-24T00:16:55;6.90;99.90
52415;DHT22;38340;52.964;6.086;2022-12-24T00:19:21;6.90;99.90
52415;DHT22;38340;52.964;6.086;2022-12-24T00:21:46;7.20;99.90
52415;DHT22;38340;52.964;6.086;2022-12-24T00:24:12;7.20;99.90
52415;DHT22;38340;52.964;6.086;2022-12-24T00:26:38;6.90;99.90
52415;DHT22;38340;52.964;6.086;2022-12-24T00:29:03;7.20;99.90
52415;DHT22;38340;52.964;6.086;2022-12-24T00:31:29;7.20;99.90
52415;DHT22;38340;52.964;6.086;2022-12-24T00:33:55;7.20;99.90
52415;DHT22;38340;52.964;6.086;2022-12-24T00:36:21;7.00;99.90
52415;DHT22;38340;52.964;6.086;2022-12-24T00:38:46;7.00;99.90
52415;DHT22;38340;52.964;6.086;2022-12-24T00:41:13;7.20;99.90
52415;DHT22;38340;52.964;6.086;2022-12-24T00:44:02;7.20;99.90
52415;DHT22;38340;52.964;6.086;2022-12-24T00:46:31;7.00;99.90
52415;DHT22;38340;52.964;6.086;2022-12-24T00:48:57;7.10;99.90
52415;DHT22;38340;52.964;6.086;2022-12-24T00:51:24;6.90;99.90
52415;DHT22;38340;52.964;6.086;2022-12-24T00:53:50;7.20;99.90
52415;DHT22;38340;52.964;6.086;2022-12-24T00:56:16;7.10;99.90
52415;DHT22;38340;52.964;6.086;2022-12-24T00:58:41;6.90;99.90
52415;DHT22;38340;52.964;6.086;2022-12-24T01:01:07;7.20;99.90
52415;DHT22;38340;52.964;6.086;2022-12-24T01:03:34;7.00;99.90
52415;DHT22;38340;52.964;6.086;2022-12-24T01:06:11;7.20;99.90
52415;DHT22;38340;52.964;6.086;2022-12-24T01:08:37;6.90;99.90
52415;DHT22;38340;52.964;6.086;2022-12-24T01:11:04;7.10;99.90
52415;DHT22;38340;52.964;6.086;2022-12-24T01:13:30;6.90;99.90
52415;DHT22;38340;52.964;6.086;2022-12-24T01:15:56;7.00;99.90
52415;DHT22;38340;52.964;6.086;2022-12-24T01:18:22;7.00;99.90
52415;DHT22;38340;52.964;6.086;2022-12-24T01:21:02;6.90;99.90
52415;DHT22;38340;52.964;6.086;2022-12-24T01:23:29;6.90;99.90
52415;DHT22;38340;52.964;6.086;2022-12-24T01:25:54;6.90;99.90
52415;DHT22;38340;52.964;6.086;2022-12-24T01:28:23;6.90;99.90
52415;DHT22;38340;52.964;6.086;2022-12-24T01:30:49;7.00;99.90
52415;DHT22;38340;52.964;6.086;2022-12-24T01:33:15;7.10;99.90
52415;DHT22;38340;52.964;6.086;2022-12-24T01:35:41;7.20;99.90
52415;DHT22;38340;52.964;6.086;2022-12-24T01:38:08;7.20;99.90
52415;DHT22;38340;52.964;6.086;2022-12-24T01:40:34;7.00;99.90
52415;DHT22;38340;52.964;6.086;2022-12-24T01:43:20;7.30;99.90
52415;DHT22;38340;52.964;6.086;2022-12-24T01:45:54;7.10;99.90
52415;DHT22;38340;52.964;6.086;2022-12-24T01:48:59;7.10;99.90
52415;DHT22;38340;52.964;6.086;2022-12-24T01:51:33;7.20;99.90
52415;DHT22;38340;52.964;6.086;2022-12-24T01:54:07;7.20;99.90
52415;DHT22;38340;52.964;6.086;2022-12-24T01:56:36;7.50;99.90
52415;DHT22;38340;52.964;6.086;2022-12-24T01:59:07;7.50;99.90
52415;DHT22;38340;52.964;6.086;2022-12-24T02:01:35;7.30;99.90
52415;DHT22;38340;52.964;6.086;2022-12-24T02:04:08;7.60;99.90
52415;DHT22;38340;52.964;6.086;2022-12-24T02:06:36;7.40;99.90
52415;DHT22;38340;52.964;6.086;2022-12-24T02:09:02;7.60;99.90
52415;DHT22;38340;52.964;6.086;2022-12-24T02:11:29;7.50;99.90
52415;DHT22;38340;52.964;6.086;2022-12-24T02:13:58;7.60;99.90
52415;DHT22;38340;52.964;6.086;2022-12-24T02:21:51;7.60;99.90
52415;DHT22;38340;52.964;6.086;2022-12-24T02:30:09;7.90;99.90
52415;DHT22;38340;52.964;6.086;2022-12-24T02:36:07;7.80;99.90
52415;DHT22;38340;52.964;6.086;2022-12-24T02:38:46;8.10;99.90
52415;DHT22;38340;52.964;6.086;2022-12-24T02:41:21;7.90;99.90
52415;DHT22;38340;52.964;6.086;2022-12-24T02:43:48;7.90;99.90
52415;DHT22;38340;52.964;6.086;2022-12-24T02:46:24;8.10;99.90
52415;DHT22;38340;52.964;6.086;2022-12-24T02:48:50;8.10;99.90
52415;DHT22;38340;52.964;6.086;2022-12-24T02:51:21;7.90;99.90
52415;DHT22;38340;52.964;6.086;2022-12-24T02:53:47;7.80;99.90
52415;DHT22;38340;52.964;6.086;2022-12-24T03:07:35;8.00;99.90
52415;DHT22;38340;52.964;6.086;2022-12-24T03:13:13;7.80;99.90
52415;DHT22;38340;52.964;6.086;2022-12-24T03:15:40;7.90;99.90
52415;DHT22;38340;52.964;6.086;2022-12-24T03:18:08;8.00;99.90
52415;DHT22;38340;52.964;6.086;2022-12-24T03:20:41;7.80;99.90
52415;DHT22;38340;52.964;6.086;2022-12-24T03:23:07;8.10;99.90
52415;DHT22;38340;52.964;6.086;2022-12-24T03:25:34;8.00;99.90
52415;DHT22;38340;52.964;6.086;2022-12-24T03:28:04;7.80;99.90
52415;DHT22;38340;52.964;6.086;2022-12-24T03:30:31;7.80;99.90
52415;DHT22;38340;52.964;6.086;2022-12-24T03:32:57;7.80;99.90
52415;DHT22;38340;52.964;6.086;2022-12-24T03:35:24;7.80;99.90
52415;DHT22;38340;52.964;6.086;2022-12-24T03:37:50;8.10;99.90
52415;DHT22;38340;52.964;6.086;2022-12-24T03:40:16;8.10;99.90
52415;DHT22;38340;52.964;6.086;2022-12-24T03:42:42;8.10;99.90
52415;DHT22;38340;52.964;6.086;2022-12-24T03:45:08;7.80;99.90
52415;DHT22;38340;52.964;6.086;2022-12-24T03:47:33;7.80;99.90
52415;DHT22;38340;52.964;6.086;2022-12-24T03:49:59;7.80;99.90
52415;DHT22;38340;52.964;6.086;2022-12-24T03:52:25;7.80;99.90
52415;DHT22;38340;52.964;6.086;2022-12-24T03:54:50;7.60;99.90
52415;DHT22;38340;52.964;6.086;2022-12-24T03:57:16;7.80;99.90
52415;DHT22;38340;52.964;6.086;2022-12-24T03:59:42;7.80;99.90
52415;DHT22;38340;52.964;6.086;2022-12-24T04:02:08;7.70;99.90
52415;DHT22;38340;52.964;6.086;2022-12-24T04:04:33;7.80;99.90
52415;DHT22;38340;52.964;6.086;2022-12-24T04:07:02;7.50;99.90
52415;DHT22;38340;52.964;6.086;2022-12-24T04:09:28;7.40;99.90
52415;DHT22;38340;52.964;6.086;2022-12-24T04:11:54;7.70;99.90
52415;DHT22;38340;52.964;6.086;2022-12-24T04:14:19;7.70;99.90
52415;DHT22;38340;52.964;6.086;2022-12-24T04:16:45;7.70;99.90
52415;DHT22;38340;52.964;6.086;2022-12-24T04:19:10;7.40;99.90
52415;DHT22;38340;52.964;6.086;2022-12-24T04:21:36;7.50;99.90
52415;DHT22;38340;52.964;6.086;2022-12-24T04:24:02;7.60;99.90
52415;DHT22;38340;52.964;6.086;2022-12-24T04:26:28;7.60;99.90
52415;DHT22;38340;52.964;6.086;2022-12-24T04:28:53;7.70;99.90
52415;DHT22;38340;52.964;6.086;2022-12-24T04:31:19;7.40;99.90
52415;DHT22;38340;52.964;6.086;2022-12-24T04:33:45;7.70;99.90
52415;DHT22;38340;52.964;6.086;2022-12-24T04:36:13;7.70;99.90
52415;DHT22;38340;52.964;6.086;2022-12-24T04:38:41;7.60;99.90
52415;DHT22;38340;52.964;6.086;2022-12-24T04:41:19;7.60;99.90
52415;DHT22;38340;52.964;6.086;2022-12-24T04:43:46;7.40;99.90
52415;DHT22;38340;52.964;6.086;2022-12-24T04:46:17;7.60;99.90
52415;DHT22;38340;52.964;6.086;2022-12-24T04:48:44;7.40;99.90
52415;DHT22;38340;52.964;6.086;2022-12-24T04:51:11;7.50;99.90
52415;DHT22;38340;52.964;6.086;2022-12-24T04:53:37;7.40;99.90
52415;DHT22;38340;52.964;6.086;2022-12-24T04:56:06;7.50;99.90
52415;DHT22;38340;52.964;6.086;2022-12-24T04:58:32;7.80;99.90
52415;DHT22;38340;52.964;6.086;2022-12-24T05:01:06;7.60;99.90
52415;DHT22;38340;52.964;6.086;2022-12-24T05:03:33;7.50;99.90
52415;DHT22;38340;52.964;6.086;2022-12-24T05:06:07;7.80;99.90
52415;DHT22;38340;52.964;6.086;2022-12-24T05:08:33;7.80;99.90
52415;DHT22;38340;52.964;6.086;2022-12-24T05:11:00;7.80;99.90
52415;DHT22;38340;52.964;6.086;2022-12-24T05:13:26;7.60;99.90
52415;DHT22;38340;52.964;6.086;2022-12-24T05:15:52;7.80;99.90
52415;DHT22;38340;52.964;6.086;2022-12-24T05:18:18;7.70;99.90
52415;DHT22;38340;52.964;6.086;2022-12-24T05:20:45;7.90;99.90
52415;DHT22;38340;52.964;6.086;2022-12-24T05:23:22;7.90;99.90
52415;DHT22;38340;52.964;6.086;2022-12-24T05:28:55;8.00;99.90
52415;DHT22;38340;52.964;6.086;2022-12-24T05:31:23;8.00;99.90
52415;DHT22;38340;52.964;6.086;2022-12-24T05:33:49;8.00;99.90
52415;DHT22;38340;52.964;6.086;2022-12-24T05:36:15;8.00;99.90
52415;DHT22;38340;52.964;6.086;2022-12-24T05:38:41;7.80;99.90
52415;DHT22;38340;52.964;6.086;2022-12-24T05:41:07;7.80;99.90
52415;DHT22;38340;52.964;6.086;2022-12-24T05:43:36;7.80;99.90
52415;DHT22;38340;52.964;6.086;2022-12-24T05:46:05;8.00;99.90
52415;DHT22;38340;52.964;6.086;2022-12-24T05:48:31;8.10;99.90
52415;DHT22;38340;52.964;6.086;2022-12-24T05:50:57;7.90;99.90
52415;DHT22;38340;52.964;6.086;2022-12-24T05:53:23;7.90;99.90
52415;DHT22;38340;52.964;6.086;2022-12-24T05:55:49;7.90;99.90
52415;DHT22;38340;52.964;6.086;2022-12-24T05:58:14;7.90;99.90
52415;DHT22;38340;52.964;6.086;2022-12-24T06:00:40;7.90;99.90
52415;DHT22;38340;52.964;6.086;2022-12-24T06:03:06;8.20;99.90
52415;DHT22;38340;52.964;6.086;2022-12-24T06:05:32;8.10;99.90
52415;DHT22;38340;52.964;6.086;2022-12-24T06:07:57;8.00;99.90
52415;DHT22;38340;52.964;6.086;2022-12-24T06:10:23;8.00;99.90
52415;DHT22;38340;52.964;6.086;2022-12-24T06:12:49;8.20;99.90
52415;DHT22;38340;52.964;6.086;2022-12-24T06:15:14;7.90;99.90
52415;DHT22;38340;52.964;6.086;2022-12-24T06:17:40;8.20;99.90
52415;DHT22;38340;52.964;6.086;2022-12-24T06:20:06;8.20;99.90
52415;DHT22;38340;52.964;6.086;2022-12-24T06:22:32;8.10;99.90
52415;DHT22;38340;52.964;6.086;2022-12-24T06:24:58;8.10;99.90
52415;DHT22;38340;52.964;6.086;2022-12-24T06:27:24;7.90;99.90
52415;DHT22;38340;52.964;6.086;2022-12-24T06:29:49;7.90;99.90
52415;DHT22;38340;52.964;6.086;2022-12-24T06:32:15;7.90;99.90
52415;DHT22;38340;52.964;6.086;2022-12-24T06:34:41;8.10;99.90
52415;DHT22;38340;52.964;6.086;2022-12-24T06:37:06;8.10;99.90
52415;DHT22;38340;52.964;6.086;2022-12-24T06:39:32;7.90;99.90
52415;DHT22;38340;52.964;6.086;2022-12-24T06:41:58;7.90;99.90
52415;DHT22;38340;52.964;6.086;2022-12-24T06:44:23;8.00;99.90
52415;DHT22;38340;52.964;6.086;2022-12-24T06:46:49;8.00;99.90
52415;DHT22;38340;52.964;6.086;2022-12-24T06:49:15;7.90;99.90
52415;DHT22;38340;52.964;6.086;2022-12-24T06:51:41;7.90;99.90
52415;DHT22;38340;52.964;6.086;2022-12-24T06:54:06;7.90;99.90
52415;DHT22;38340;52.964;6.086;2022-12-24T06:56:32;8.10;99.90
52415;DHT22;38340;52.964;6.086;2022-12-24T06:58:58;7.90;99.90
52415;DHT22;38340;52.964;6.086;2022-12-24T07:01:23;8.00;99.90
52415;DHT22;38340;52.964;6.086;2022-12-24T07:03:49;7.90;99.90
52415;DHT22;38340;52.964;6.086;2022-12-24T07:06:23;8.10;99.90
52415;DHT22;38340;52.964;6.086;2022-12-24T07:08:49;8.00;99.90
52415;DHT22;38340;52.964;6.086;2022-12-24T07:11:15;7.80;99.90
52415;DHT22;38340;52.964;6.086;2022-12-24T07:13:41;7.70;99.90
52415;DHT22;38340;52.964;6.086;2022-12-24T07:16:07;7.70;99.90
52415;DHT22;38340;52.964;6.086;2022-12-24T07:18:32;7.80;99.90
52415;DHT22;38340;52.964;6.086;2022-12-24T07:20:59;7.80;99.90
52415;DHT22;38340;52.964;6.086;2022-12-24T07:23:25;7.50;99.90
52415;DHT22;38340;52.964;6.086;2022-12-24T07:25:51;7.50;99.90
52415;DHT22;38340;52.964;6.086;2022-12-24T07:28:16;7.60;99.90
52415;DHT22;38340;52.964;6.086;2022-12-24T07:30:42;7.60;99.90
52415;DHT22;38340;52.964;6.086;2022-12-24T07:33:08;7.70;99.90
52415;DHT22;38340;52.964;6.086;2022-12-24T07:35:34;7.60;99.90
52415;DHT22;38340;52.964;6.086;2022-12-24T07:38:01;7.60;99.90
52415;DHT22;38340;52.964;6.086;2022-12-24T07:40:27;7.60;99.90
52415;DHT22;38340;52.964;6.086;2022-12-24T07:42:53;7.60;99.90
52415;DHT22;38340;52.964;6.086;2022-12-24T07:45:18;7.50;99.90
52415;DHT22;38340;52.964;6.086;2022-12-24T07:47:44;7.40;99.90
52415;DHT22;38340;52.964;6.086;2022-12-24T07:50:10;7.50;99.90
52415;DHT22;38340;52.964;6.086;2022-12-24T07:52:36;7.40;99.90
52415;DHT22;38340;52.964;6.086;2022-12-24T07:55:01;7.60;99.90
52415;DHT22;38340;52.964;6.086;2022-12-24T07:57:27;7.60;99.90
52415;DHT22;38340;52.964;6.086;2022-12-24T07:59:53;7.60;99.90
52415;DHT22;38340;52.964;6.086;2022-12-24T08:02:18;7.40;99.90
52415;DHT22;38340;52.964;6.086;2022-12-24T08:04:44;7.40;99.90
52415;DHT22;38340;52.964;6.086;2022-12-24T08:07:10;7.50;99.90
52415;DHT22;38340;52.964;6.086;2022-12-24T08:09:36;7.70;99.90
52415;DHT22;38340;52.964;6.086;2022-12-24T08:12:03;7.60;99.90
52415;DHT22;38340;52.964;6.086;2022-12-24T08:14:29;7.80;99.90
52415;DHT22;38340;52.964;6.086;2022-12-24T08:16:55;7.70;99.90
52415;DHT22;38340;52.964;6.086;2022-12-24T08:19:21;7.80;99.90
52415;DHT22;38340;52.964;6.086;2022-12-24T08:21:47;7.80;99.90
52415;DHT22;38340;52.964;6.086;2022-12-24T08:24:13;7.60;99.90
52415;DHT22;38340;52.964;6.086;2022-12-24T08:26:38;7.70;99.90
52415;DHT22;38340;52.964;6.086;2022-12-24T08:29:05;7.80;99.90
52415;DHT22;38340;52.964;6.086;2022-12-24T08:31:31;7.90;99.90
52415;DHT22;38340;52.964;6.086;2022-12-24T08:34:05;8.00;99.90
52415;DHT22;38340;52.964;6.086;2022-12-24T08:36:31;7.90;99.90
52415;DHT22;38340;52.964;6.086;2022-12-24T08:38:56;8.00;99.90
52415;DHT22;38340;52.964;6.086;2022-12-24T08:41:22;7.90;99.90
52415;DHT22;38340;52.964;6.086;2022-12-24T08:43:48;8.10;99.90
52415;DHT22;38340;52.964;6.086;2022-12-24T08:46:14;8.00;99.90
52415;DHT22;38340;52.964;6.086;2022-12-24T08:48:39;8.20;99.90
52415;DHT22;38340;52.964;6.086;2022-12-24T08:51:09;8.10;99.90
52415;DHT22;38340;52.964;6.086;2022-12-24T08:53:36;8.30;99.90
52415;DHT22;38340;52.964;6.086;2022-12-24T08:56:03;8.30;99.90
52415;DHT22;38340;52.964;6.086;2022-12-24T08:58:29;8.10;99.90
52415;DHT22;38340;52.964;6.086;2022-12-24T09:00:55;8.40;99.90
52415;DHT22;38340;52.964;6.086;2022-12-24T09:03:21;8.20;99.90
52415;DHT22;38340;52.964;6.086;2022-12-24T09:05:47;8.40;99.90
52415;DHT22;38340;52.964;6.086;2022-12-24T09:08:12;8.40;99.90
52415;DHT22;38340;52.964;6.086;2022-12-24T09:10:38;8.30;99.90
52415;DHT22;38340;52.964;6.086;2022-12-24T09:13:04;8.20;99.90
52415;DHT22;38340;52.964;6.086;2022-12-24T09:15:29;8.20;99.90
52415;DHT22;38340;52.964;6.086;2022-12-24T09:17:55;8.30;99.90
52415;DHT22;38340;52.964;6.086;2022-12-24T09:20:21;8.30;99.90
52415;DHT22;38340;52.964;6.086;2022-12-24T09:22:47;8.40;99.90
52415;DHT22;38340;52.964;6.086;2022-12-24T09:25:13;8.30;99.90
52415;DHT22;38340;52.964;6.086;2022-12-24T09:27:38;8.40;99.90
52415;DHT22;38340;52.964;6.086;2022-12-24T09:30:05;8.30;99.90
52415;DHT22;38340;52.964;6.086;2022-12-24T09:32:31;8.30;99.90
52415;DHT22;38340;52.964;6.086;2022-12-24T09:34:57;8.60;99.90
52415;DHT22;38340;52.964;6.086;2022-12-24T09:37:23;8.40;99.90
52415;DHT22;38340;52.964;6.086;2022-12-24T09:39:48;8.60;99.90
52415;DHT22;38340;52.964;6.086;2022-12-24T09:45:16;8.60;99.90
52415;DHT22;38340;52.964;6.086;2022-12-24T09:47:47;8.60;99.90
52415;DHT22;38340;52.964;6.086;2022-12-24T09:53:03;8.70;99.90
52415;DHT22;38340;52.964;6.086;2022-12-24T09:55:33;8.80;99.90
52415;DHT22;38340;52.964;6.086;2022-12-24T09:58:03;8.90;99.90
52415;DHT22;38340;52.964;6.086;2022-12-24T10:00:34;8.80;99.90
52415;DHT22;38340;52.964;6.086;2022-12-24T10:03:04;8.90;99.90
52415;DHT22;38340;52.964;6.086;2022-12-24T10:05:44;8.90;99.90
52415;DHT22;38340;52.964;6.086;2022-12-24T10:11:35;8.90;99.90
52415;DHT22;38340;52.964;6.086;2022-12-24T10:14:34;9.10;99.90
52415;DHT22;38340;52.964;6.086;2022-12-24T10:17:15;9.10;99.90
52415;DHT22;38340;52.964;6.086;2022-12-24T10:22:52;9.20;99.90
52415;DHT22;38340;52.964;6.086;2022-12-24T10:25:27;9.20;99.90
52415;DHT22;38340;52.964;6.086;2022-12-24T10:27:57;9.20;99.90
52415;DHT22;38340;52.964;6.086;2022-12-24T10:30:24;9.10;99.90
52415;DHT22;38340;52.964;6.086;2022-12-24T10:32:52;9.20;99.90
52415;DHT22;38340;52.964;6.086;2022-12-24T10:35:21;9.10;99.90
52415;DHT22;38340;52.964;6.086;2022-12-24T10:37:49;9.20;99.90
52415;DHT22;38340;52.964;6.086;2022-12-24T10:40:48;9.10;99.90
52415;DHT22;38340;52.964;6.086;2022-12-24T10:43:18;8.90;99.90
52415;DHT22;38340;52.964;6.086;2022-12-24T10:45:53;9.00;99.90
52415;DHT22;38340;52.964;6.086;2022-12-24T10:48:37;9.00;99.90
52415;DHT22;38340;52.964;6.086;2022-12-24T10:51:12;8.90;99.90
52415;DHT22;38340;52.964;6.086;2022-12-24T10:53:48;9.00;99.90
52415;DHT22;38340;52.964;6.086;2022-12-24T10:56:19;9.10;99.90
52415;DHT22;38340;52.964;6.086;2022-12-24T10:58:51;8.90;99.90
52415;DHT22;38340;52.964;6.086;2022-12-24T11:01:17;8.90;99.90
52415;DHT22;38340;52.964;6.086;2022-12-24T11:03:43;9.10;99.90
52415;DHT22;38340;52.964;6.086;2022-12-24T11:06:15;9.20;99.90
52415;DHT22;38340;52.964;6.086;2022-12-24T11:08:47;9.00;99.90
52415;DHT22;38340;52.964;6.086;2022-12-24T11:11:19;9.00;99.90
52415;DHT22;38340;52.964;6.086;2022-12-24T11:13:45;9.10;99.90
52415;DHT22;38340;52.964;6.086;2022-12-24T11:16:29;9.30;99.90
52415;DHT22;38340;52.964;6.086;2022-12-24T11:18:58;9.30;99.90
52415;DHT22;38340;52.964;6.086;2022-12-24T11:21:31;9.00;99.90
52415;DHT22;38340;52.964;6.086;2022-12-24T11:24:07;9.20;99.90
52415;DHT22;38340;52.964;6.086;2022-12-24T11:26:34;9.20;99.90
52415;DHT22;38340;52.964;6.086;2022-12-24T11:31:42;9.30;99.90
52415;DHT22;38340;52.964;6.086;2022-12-24T11:36:43;9.20;99.90
52415;DHT22;38340;52.964;6.086;2022-12-24T11:39:20;9.20;99.90
52415;DHT22;38340;52.964;6.086;2022-12-24T11:41:47;9.40;99.90
52415;DHT22;38340;52.964;6.086;2022-12-24T11:44:26;9.40;99.90
52415;DHT22;38340;52.964;6.086;2022-12-24T11:46:54;9.30;99.90
52415;DHT22;38340;52.964;6.086;2022-12-24T11:49:26;9.40;99.90
52415;DHT22;38340;52.964;6.086;2022-12-24T11:55:02;9.40;99.90
52415;DHT22;38340;52.964;6.086;2022-12-24T11:57:57;9.40;99.90
52415;DHT22;38340;52.964;6.086;2022-12-24T12:00:20;9.50;99.90
52415;DHT22;38340;52.964;6.086;2022-12-24T12:02:48;9.50;99.90
52415;DHT22;38340;52.964;6.086;2022-12-24T12:05:22;9.60;99.90
52415;DHT22;38340;52.964;6.086;2022-12-24T12:07:52;9.40;99.90
52415;DHT22;38340;52.964;6.086;2022-12-24T12:10:29;9.50;99.90
52415;DHT22;38340;52.964;6.086;2022-12-24T12:13:04;9.40;99.90
52415;DHT22;38340;52.964;6.086;2022-12-24T12:18:10;9.20;99.90
52415;DHT22;38340;52.964;6.086;2022-12-24T12:20:46;9.20;99.90
52415;DHT22;38340;52.964;6.086;2022-12-24T12:23:33;9.30;99.90
52415;DHT22;38340;52.964;6.086;2022-12-24T12:26:14;9.30;99.90
52415;DHT22;38340;52.964;6.086;2022-12-24T12:28:46;9.10;99.90
52415;DHT22;38340;52.964;6.086;2022-12-24T12:36:38;9.20;99.90
52415;DHT22;38340;52.964;6.086;2022-12-24T12:39:05;9.30;99.90
52415;DHT22;38340;52.964;6.086;2022-12-24T12:44:28;9.20;99.90
52415;DHT22;38340;52.964;6.086;2022-12-24T12:47:31;9.30;99.90
52415;DHT22;38340;52.964;6.086;2022-12-24T12:56:08;9.40;99.90
52415;DHT22;38340;52.964;6.086;2022-12-24T12:58:42;9.40;99.90
52415;DHT22;38340;52.964;6.086;2022-12-24T13:12:43;9.40;99.90
52415;DHT22;38340;52.964;6.086;2022-12-24T13:20:48;9.40;99.90
52415;DHT22;38340;52.964;6.086;2022-12-24T13:23:18;9.30;99.90
52415;DHT22;38340;52.964;6.086;2022-12-24T13:25:49;9.50;99.90
52415;DHT22;38340;52.964;6.086;2022-12-24T13:28:17;9.40;99.90
52415;DHT22;38340;52.964;6.086;2022-12-24T13:36:11;9.30;99.90
52415;DHT22;38340;52.964;6.086;2022-12-24T13:38:52;9.20;99.90
52415;DHT22;38340;52.964;6.086;2022-12-24T13:46:56;9.40;99.90
52415;DHT22;38340;52.964;6.086;2022-12-24T13:55:06;9.10;99.90
52415;DHT22;38340;52.964;6.086;2022-12-24T13:57:39;9.10;99.90
52415;DHT22;38340;52.964;6.086;2022-12-24T14:00:27;9.10;99.90
52415;DHT22;38340;52.964;6.086;2022-12-24T14:08:24;9.10;99.90
52415;DHT22;38340;52.964;6.086;2022-12-24T14:11:10;9.10;99.90
52415;DHT22;38340;52.964;6.086;2022-12-24T14:18:38;8.90;99.90
52415;DHT22;38340;52.964;6.086;2022-12-24T14:21:06;9.00;99.90
52415;DHT22;38340;52.964;6.086;2022-12-24T14:23:42;8.90;99.90
52415;DHT22;38340;52.964;6.086;2022-12-24T14:26:22;8.80;99.90
52415;DHT22;38340;52.964;6.086;2022-12-24T14:29:02;8.90;99.90
52415;DHT22;38340;52.964;6.086;2022-12-24T14:31:30;8.80;99.90
52415;DHT22;38340;52.964;6.086;2022-12-24T14:34:11;8.80;99.90
52415;DHT22;38340;52.964;6.086;2022-12-24T14:36:38;8.80;99.90
52415;DHT22;38340;52.964;6.086;2022-12-24T14:39:08;8.80;99.90
52415;DHT22;38340;52.964;6.086;2022-12-24T14:41:55;8.80;99.90
52415;DHT22;38340;52.964;6.086;2022-12-24T14:44:40;8.80;99.90
52415;DHT22;38340;52.964;6.086;2022-12-24T14:50:32;8.60;99.90
52415;DHT22;38340;52.964;6.086;2022-12-24T14:53:11;8.70;99.90
52415;DHT22;38340;52.964;6.086;2022-12-24T14:55:45;8.60;99.90
52415;DHT22;38340;52.964;6.086;2022-12-24T14:58:23;8.60;99.90
52415;DHT22;38340;52.964;6.086;2022-12-24T15:00:51;8.50;99.90
52415;DHT22;38340;52.964;6.086;2022-12-24T15:03:20;8.60;99.90
52415;DHT22;38340;52.964;6.086;2022-12-24T15:05:51;8.50;99.90
52415;DHT22;38340;52.964;6.086;2022-12-24T15:08:26;8.50;99.90
52415;DHT22;38340;52.964;6.086;2022-12-24T15:10:56;8.40;99.90
52415;DHT22;38340;52.964;6.086;2022-12-24T15:13:37;8.50;99.90
52415;DHT22;38340;52.964;6.086;2022-12-24T15:16:07;8.40;99.90
52415;DHT22;38340;52.964;6.086;2022-12-24T15:18:37;8.30;99.90
52415;DHT22;38340;52.964;6.086;2022-12-24T15:21:06;8.20;99.90
52415;DHT22;38340;52.964;6.086;2022-12-24T15:23:35;8.10;99.90
52415;DHT22;38340;52.964;6.086;2022-12-24T15:26:23;8.00;99.90
52415;DHT22;38340;52.964;6.086;2022-12-24T15:28:51;8.10;99.90
52415;DHT22;38340;52.964;6.086;2022-12-24T15:31:19;8.10;99.90
52415;DHT22;38340;52.964;6.086;2022-12-24T15:33:51;7.90;99.90
52415;DHT22;38340;52.964;6.086;2022-12-24T15:36:25;8.00;99.90
52415;DHT22;38340;52.964;6.086;2022-12-24T15:38:53;7.80;99.90
52415;DHT22;38340;52.964;6.086;2022-12-24T15:41:28;8.00;99.90
52415;DHT22;38340;52.964;6.086;2022-12-24T15:43:59;7.90;99.90
52415;DHT22;38340;52.964;6.086;2022-12-24T15:46:27;7.80;99.90
52415;DHT22;38340;52.964;6.086;2022-12-24T15:48:55;7.80;99.90
52415;DHT22;38340;52.964;6.086;2022-12-24T15:51:34;7.90;99.90
52415;DHT22;38340;52.964;6.086;2022-12-24T15:54:11;7.60;99.90
52415;DHT22;38340;52.964;6.086;2022-12-24T15:56:42;7.70;99.90
52415;DHT22;38340;52.964;6.086;2022-12-24T16:01:43;7.50;99.90
52415;DHT22;38340;52.964;6.086;2022-12-24T16:04:26;7.50;99.90
52415;DHT22;38340;52.964;6.086;2022-12-24T16:07:00;7.60;99.90
52415;DHT22;38340;52.964;6.086;2022-12-24T16:12:02;7.40;99.90
52415;DHT22;38340;52.964;6.086;2022-12-24T16:14:29;7.30;99.90
52415;DHT22;38340;52.964;6.086;2022-12-24T16:16:56;7.50;99.90
52415;DHT22;38340;52.964;6.086;2022-12-24T16:19:24;7.40;99.90
52415;DHT22;38340;52.964;6.086;2022-12-24T16:21:59;7.20;99.90
52415;DHT22;38340;52.964;6.086;2022-12-24T16:24:45;7.10;99.90
52415;DHT22;38340;52.964;6.086;2022-12-24T16:27:12;7.20;99.90
52415;DHT22;38340;52.964;6.086;2022-12-24T16:29:38;7.20;99.90
52415;DHT22;38340;52.964;6.086;2022-12-24T16:32:04;7.10;99.90
52415;DHT22;38340;52.964;6.086;2022-12-24T16:34:31;6.90;99.90
52415;DHT22;38340;52.964;6.086;2022-12-24T16:36:57;7.10;99.90
52415;DHT22;38340;52.964;6.086;2022-12-24T16:39:29;7.00;99.90
52415;DHT22;38340;52.964;6.086;2022-12-24T16:41:57;7.00;99.90
52415;DHT22;38340;52.964;6.086;2022-12-24T16:44:42;7.00;99.90
52415;DHT22;38340;52.964;6.086;2022-12-24T16:47:18;7.00;99.90
52415;DHT22;38340;52.964;6.086;2022-12-24T16:49:45;6.90;99.90
52415;DHT22;38340;52.964;6.086;2022-12-24T16:52:16;6.70;99.90
52415;DHT22;38340;52.964;6.086;2022-12-24T16:54:42;6.70;99.90
52415;DHT22;38340;52.964;6.086;2022-12-24T16:57:09;6.60;99.90
52415;DHT22;38340;52.964;6.086;2022-12-24T16:59:36;6.60;99.90
52415;DHT22;38340;52.964;6.086;2022-12-24T17:02:02;6.70;99.90
52415;DHT22;38340;52.964;6.086;2022-12-24T17:04:30;6.70;99.90
52415;DHT22;38340;52.964;6.086;2022-12-24T17:06:56;6.50;99.90
52415;DHT22;38340;52.964;6.086;2022-12-24T17:09:22;6.60;99.90
52415;DHT22;38340;52.964;6.086;2022-12-24T17:11:47;6.60;99.90
52415;DHT22;38340;52.964;6.086;2022-12-24T17:14:13;6.50;99.90
52415;DHT22;38340;52.964;6.086;2022-12-24T17:16:39;6.50;99.90
52415;DHT22;38340;52.964;6.086;2022-12-24T17:19:05;6.40;99.90
52415;DHT22;38340;52.964;6.086;2022-12-24T17:21:31;6.20;99.90
52415;DHT22;38340;52.964;6.086;2022-12-24T17:23:56;6.30;99.90
52415;DHT22;38340;52.964;6.086;2022-12-24T17:26:22;6.10;99.90
52415;DHT22;38340;52.964;6.086;2022-12-24T17:28:52;6.10;99.90
52415;DHT22;38340;52.964;6.086;2022-12-24T17:31:19;6.00;99.90
52415;DHT22;38340;52.964;6.086;2022-12-24T17:33:46;6.10;99.90
52415;DHT22;38340;52.964;6.086;2022-12-24T17:36:12;6.00;99.90
52415;DHT22;38340;52.964;6.086;2022-12-24T17:38:38;5.90;99.90
52415;DHT22;38340;52.964;6.086;2022-12-24T17:41:06;5.90;99.90
52415;DHT22;38340;52.964;6.086;2022-12-24T17:43:33;6.10;99.90
52415;DHT22;38340;52.964;6.086;2022-12-24T17:45:58;6.00;99.90
52415;DHT22;38340;52.964;6.086;2022-12-24T17:48:24;6.10;99.90
52415;DHT22;38340;52.964;6.086;2022-12-24T17:50:50;6.00;99.90
52415;DHT22;38340;52.964;6.086;2022-12-24T17:53:16;6.00;99.90
52415;DHT22;38340;52.964;6.086;2022-12-24T17:55:42;5.80;99.90
52415;DHT22;38340;52.964;6.086;2022-12-24T17:58:09;5.70;99.90
52415;DHT22;38340;52.964;6.086;2022-12-24T18:00:35;5.90;99.90